sensor_id;sensor_type;location;lat;lon;timestamp;pressure;altitude;pressure_sealevel;temperature;humidity
69911;BME280;63555;49.920;17.868;2024-03-07T00:04:17;99173.81;;;3.19;100.00
69911;BME280;63555;49.920;17.868;2024-03-07T00:09:18;99169.41;;;3.21;100.00
69911;BME280;63555;49.920;17.868;2024-03-07T00:14:18;99172.84;;;3.22;100.00
69911;BME280;63555;49.920;17.868;2024-03-07T00:19:21;99172.06;;;3.19;100.00
69911;BME280;63555;49.920;17.868;2024-03-07T00:24:22;99172.13;;;3.18;100.00
69911;BME280;63555;49.920;17.868;2024-03-07T00:29:23;99173.16;;;3.14;100.00
69911;BME280;63555;49.920;17.868;2024-03-07T00:34:23;99167.22;;;3.10;100.00
69911;BME280;63555;49.920;17.868;2024-03-07T00:39:23;99162.06;;;3.09;100.00
69911;BME280;63555;49.920;17.868;2024-03-07T00:44:24;99155.09;;;3.09;100.00
69911;BME280;63555;49.920;17.868;2024-03-07T00:49:24;99155.09;;;3.09;100.00
69911;BME280;63555;49.920;17.868;2024-03-07T00:54:24;99152.53;;;3.08;100.00
69911;BME280;63555;49.920;17.868;2024-03-07T00:59:25;99153.50;;;3.05;100.00
69911;BME280;63555;49.920;17.868;2024-03-07T01:04:25;99154.47;;;3.03;100.00
69911;BME280;63555;49.920;17.868;2024-03-07T01:09:31;99147.56;;;3.02;100.00
69911;BME280;63555;49.920;17.868;2024-03-07T01:14:31;99144.06;;;3.03;100.00
69911;BME280;63555;49.920;17.868;2024-03-07T01:19:32;99152.84;;;3.00;100.00
69911;BME280;63555;49.920;17.868;2024-03-07T01:24:32;99155.63;;;2.96;100.00
69911;BME280;63555;49.920;17.868;2024-03-07T01:29:33;99147.09;;;2.92;100.00
69911;BME280;63555;49.920;17.868;2024-03-07T01:34:34;99147.09;;;2.92;100.00
69911;BME280;63555;49.920;17.868;2024-03-07T01:39:35;99151.50;;;2.90;100.00
69911;BME280;63555;49.920;17.868;2024-03-07T01:44:35;99143.63;;;2.92;100.00
69911;BME280;63555;49.920;17.868;2024-03-07T01:49:36;99146.28;;;2.90;100.00
69911;BME280;63555;49.920;17.868;2024-03-07T01:54:39;99149.81;;;2.89;100.00
69911;BME280;63555;49.920;17.868;2024-03-07T01:59:39;99148.22;;;2.85;100.00
69911;BME280;63555;49.920;17.868;2024-03-07T02:04:40;99150.16;;;2.80;100.00
69911;BME280;63555;49.920;17.868;2024-03-07T02:09:41;99140.66;;;2.79;100.00
69911;BME280;63555;49.920;17.868;2024-03-07T02:14:41;99137.97;;;2.80;100.00
69911;BME280;63555;49.920;17.868;2024-03-07T02:19:42;99131.19;;;2.76;100.00
69911;BME280;63555;49.920;17.868;2024-03-07T02:24:42;99132.16;;;2.74;100.00
69911;BME280;63555;49.920;17.868;2024-03-07T02:29:43;99134.94;;;2.69;100.00
69911;BME280;63555;49.920;17.868;2024-03-07T02:34:43;99139.47;;;2.64;100.00
69911;BME280;63555;49.920;17.868;2024-03-07T02:39:43;99135.28;;;2.60;100.00
69911;BME280;63555;49.920;17.868;2024-03-07T02:44:44;99136.97;;;2.61;100.00
69911;BME280;63555;49.920;17.868;2024-03-07T02:49:44;99123.91;;;2.63;100.00
69911;BME280;63555;49.920;17.868;2024-03-07T02:54:45;99129.16;;;2.61;100.00
69911;BME280;63555;49.920;17.868;2024-03-07T02:59:45;99125.81;;;2.58;100.00
69911;BME280;63555;49.920;17.868;2024-03-07T03:04:46;99130.22;;;2.55;100.00
69911;BME280;63555;49.920;17.868;2024-03-07T03:09:46;99135.53;;;2.52;100.00
69911;BME280;63555;49.920;17.868;2024-03-07T03:14:47;99139.09;;;2.50;100.00
69911;BME280;63555;49.920;17.868;2024-03-07T03:19:48;99147.03;;;2.47;100.00
69911;BME280;63555;49.920;17.868;2024-03-07T03:24:50;99142.84;;;2.43;100.00
69911;BME280;63555;49.920;17.868;2024-03-07T03:29:50;99149.97;;;2.38;100.00
69911;BME280;63555;49.920;17.868;2024-03-07T03:34:50;99140.56;;;2.34;100.00
69911;BME280;63555;49.920;17.868;2024-03-07T03:39:52;99135.47;;;2.31;100.00
69911;BME280;63555;49.920;17.868;2024-03-07T03:44:53;99136.72;;;2.20;100.00
69911;BME280;63555;49.920;17.868;2024-03-07T03:49:53;99140.72;;;2.06;100.00
69911;BME280;63555;49.920;17.868;2024-03-07T03:54:53;99131.59;;;1.94;100.00
69911;BME280;63555;49.920;17.868;2024-03-07T03:59:54;99138.84;;;1.84;100.00
69911;BME280;63555;49.920;17.868;2024-03-07T04:04:54;99133.72;;;1.83;100.00
69911;BME280;63555;49.920;17.868;2024-03-07T04:09:55;99139.50;;;1.91;100.00
69911;BME280;63555;49.920;17.868;2024-03-07T04:14:55;99145.34;;;1.98;100.00
69911;BME280;63555;49.920;17.868;2024-03-07T04:19:56;99149.41;;;2.05;100.00
69911;BME280;63555;49.920;17.868;2024-03-07T04:24:58;99136.31;;;2.08;100.00
69911;BME280;63555;49.920;17.868;2024-03-07T04:29:59;99143.88;;;2.14;100.00
69911;BME280;63555;49.920;17.868;2024-03-07T04:34:59;99152.53;;;2.14;100.00
69911;BME280;63555;49.920;17.868;2024-03-07T04:40:00;99143.72;;;2.18;100.00
69911;BME280;63555;49.920;17.868;2024-03-07T04:45:01;99154.88;;;2.22;100.00
69911;BME280;63555;49.920;17.868;2024-03-07T04:50:02;99148.66;;;2.26;100.00
69911;BME280;63555;49.920;17.868;2024-03-07T04:55:04;99152.09;;;2.27;100.00
69911;BME280;63555;49.920;17.868;2024-03-07T05:00:09;99155.66;;;2.24;100.00
69911;BME280;63555;49.920;17.868;2024-03-07T05:05:19;99148.88;;;2.20;100.00
69911;BME280;63555;49.920;17.868;2024-03-07T05:10:22;99162.00;;;2.17;100.00
69911;BME280;63555;49.920;17.868;2024-03-07T05:15:23;99163.75;;;2.16;100.00
69911;BME280;63555;49.920;17.868;2024-03-07T05:20:26;99175.06;;;2.15;100.00
69911;BME280;63555;49.920;17.868;2024-03-07T05:25:28;99176.91;;;2.12;100.00
69911;BME280;63555;49.920;17.868;2024-03-07T05:30:28;99171.94;;;2.06;100.00
69911;BME280;63555;49.920;17.868;2024-03-07T05:35:29;99177.22;;;2.03;100.00
69911;BME280;63555;49.920;17.868;2024-03-07T05:40:29;99183.38;;;2.00;100.00
69911;BME280;63555;49.920;17.868;2024-03-07T05:45:30;99189.50;;;1.99;100.00
69911;BME280;63555;49.920;17.868;2024-03-07T05:50:30;99187.84;;;1.97;100.00
69911;BME280;63555;49.920;17.868;2024-03-07T05:55:30;99200.09;;;1.93;100.00
69911;BME280;63555;49.920;17.868;2024-03-07T06:00:33;99200.22;;;1.90;100.00
69911;BME280;63555;49.920;17.868;2024-03-07T06:05:35;99202.06;;;1.86;100.00
69911;BME280;63555;49.920;17.868;2024-03-07T06:10:35;99210.00;;;1.82;100.00
69911;BME280;63555;49.920;17.868;2024-03-07T06:15:35;99216.91;;;1.83;100.00
69911;BME280;63555;49.920;17.868;2024-03-07T06:20:37;99213.50;;;1.81;100.00
69911;BME280;63555;49.920;17.868;2024-03-07T06:25:37;99211.00;;;1.78;100.00
69911;BME280;63555;49.920;17.868;2024-03-07T06:30:47;99211.00;;;1.78;100.00
69911;BME280;63555;49.920;17.868;2024-03-07T06:35:48;99217.81;;;1.82;100.00
69911;BME280;63555;49.920;17.868;2024-03-07T06:40:48;99216.81;;;1.86;100.00
69911;BME280;63555;49.920;17.868;2024-03-07T06:45:49;99223.81;;;1.84;100.00
69911;BME280;63555;49.920;17.868;2024-03-07T06:50:50;99228.06;;;1.86;100.00
69911;BME280;63555;49.920;17.868;2024-03-07T06:55:51;99237.66;;;1.84;100.00
69911;BME280;63555;49.920;17.868;2024-03-07T07:00:53;99238.66;;;1.80;100.00
69911;BME280;63555;49.920;17.868;2024-03-07T07:05:54;99243.75;;;1.83;100.00
69911;BME280;63555;49.920;17.868;2024-03-07T07:10:55;99253.22;;;1.86;100.00
69911;BME280;63555;49.920;17.868;2024-03-07T07:15:56;99255.88;;;1.84;100.00
69911;BME280;63555;49.920;17.868;2024-03-07T07:20:56;99250.63;;;1.86;100.00
69911;BME280;63555;49.920;17.868;2024-03-07T07:25:58;99252.41;;;1.84;100.00
69911;BME280;63555;49.920;17.868;2024-03-07T07:30:58;99258.41;;;1.86;100.00
69911;BME280;63555;49.920;17.868;2024-03-07T07:35:59;99253.13;;;1.89;100.00
69911;BME280;63555;49.920;17.868;2024-03-07T07:41:01;99260.00;;;1.90;100.00
69911;BME280;63555;49.920;17.868;2024-03-07T07:46:01;99261.75;;;1.89;100.00
69911;BME280;63555;49.920;17.868;2024-03-07T07:51:02;99260.16;;;1.85;100.00
69911;BME280;63555;49.920;17.868;2024-03-07T07:56:05;99262.88;;;1.82;100.00
69911;BME280;63555;49.920;17.868;2024-03-07T08:01:05;99267.31;;;1.79;100.00
69911;BME280;63555;49.920;17.868;2024-03-07T08:06:10;99275.00;;;1.82;100.00
69911;BME280;63555;49.920;17.868;2024-03-07T08:11:10;99277.41;;;1.88;100.00
69911;BME280;63555;49.920;17.868;2024-03-07T08:16:12;99271.41;;;1.86;100.00
69911;BME280;63555;49.920;17.868;2024-03-07T08:21:12;99268.00;;;1.84;100.00
69911;BME280;63555;49.920;17.868;2024-03-07T08:26:13;99267.97;;;1.85;100.00
69911;BME280;63555;49.920;17.868;2024-03-07T08:31:15;99268.66;;;1.90;100.00
69911;BME280;63555;49.920;17.868;2024-03-07T08:36:17;99268.56;;;1.94;100.00
69911;BME280;63555;49.920;17.868;2024-03-07T08:41:17;99274.50;;;1.97;100.00
69911;BME280;63555;49.920;17.868;2024-03-07T08:46:18;99269.22;;;2.00;100.00
69911;BME280;63555;49.920;17.868;2024-03-07T08:51:18;99261.59;;;2.20;100.00
69911;BME280;63555;49.920;17.868;2024-03-07T08:56:19;99270.47;;;2.40;100.00
69911;BME280;63555;49.920;17.868;2024-03-07T09:01:19;99262.41;;;2.47;100.00
69911;BME280;63555;49.920;17.868;2024-03-07T09:06:20;99269.19;;;2.51;100.00
69911;BME280;63555;49.920;17.868;2024-03-07T09:11:20;99269.03;;;2.56;100.00
69911;BME280;63555;49.920;17.868;2024-03-07T09:16:21;99267.03;;;2.64;100.00
69911;BME280;63555;49.920;17.868;2024-03-07T09:21:21;99275.81;;;2.62;100.00
69911;BME280;63555;49.920;17.868;2024-03-07T09:26:21;99283.97;;;2.51;100.00
69911;BME280;63555;49.920;17.868;2024-03-07T09:31:22;99282.47;;;2.44;100.00
69911;BME280;63555;49.920;17.868;2024-03-07T09:36:22;99292.09;;;2.42;100.00
69911;BME280;63555;49.920;17.868;2024-03-07T09:41:23;99295.66;;;2.39;100.00
69911;BME280;63555;49.920;17.868;2024-03-07T09:46:25;99304.47;;;2.35;100.00
69911;BME280;63555;49.920;17.868;2024-03-07T09:51:27;99303.59;;;2.35;100.00
69911;BME280;63555;49.920;17.868;2024-03-07T09:56:28;99296.50;;;2.40;100.00
69911;BME280;63555;49.920;17.868;2024-03-07T10:01:35;99300.59;;;2.47;100.00
69911;BME280;63555;49.920;17.868;2024-03-07T10:06:38;99294.53;;;2.46;100.00
69911;BME280;63555;49.920;17.868;2024-03-07T10:11:42;99293.00;;;2.41;100.00
69911;BME280;63555;49.920;17.868;2024-03-07T10:16:42;99294.78;;;2.39;100.00
69911;BME280;63555;49.920;17.868;2024-03-07T10:21:43;99300.06;;;2.37;100.00
69911;BME280;63555;49.920;17.868;2024-03-07T10:26:43;99297.44;;;2.37;100.00
69911;BME280;63555;49.920;17.868;2024-03-07T10:31:43;99303.56;;;2.36;100.00
69911;BME280;63555;49.920;17.868;2024-03-07T10:36:45;99299.31;;;2.34;100.00
69911;BME280;63555;49.920;17.868;2024-03-07T10:41:49;99302.66;;;2.37;100.00
69911;BME280;63555;49.920;17.868;2024-03-07T10:46:55;99306.22;;;2.35;100.00
69911;BME280;63555;49.920;17.868;2024-03-07T10:52:02;99302.06;;;2.29;100.00
69911;BME280;63555;49.920;17.868;2024-03-07T10:57:30;99298.56;;;2.30;100.00
69911;BME280;63555;49.920;17.868;2024-03-07T11:02:40;99307.06;;;2.35;100.00
69911;BME280;63555;49.920;17.868;2024-03-07T11:07:45;99298.50;;;2.32;100.00
69911;BME280;63555;49.920;17.868;2024-03-07T11:12:47;99308.03;;;2.33;100.00
69911;BME280;63555;49.920;17.868;2024-03-07T11:17:50;99299.38;;;2.32;100.00
69911;BME280;63555;49.920;17.868;2024-03-07T11:22:51;99301.91;;;2.34;100.00
69911;BME280;63555;49.920;17.868;2024-03-07T11:27:58;99301.91;;;2.34;100.00
69911;BME280;63555;49.920;17.868;2024-03-07T11:33:01;99297.50;;;2.36;100.00
69911;BME280;63555;49.920;17.868;2024-03-07T11:38:02;99292.19;;;2.39;100.00
69911;BME280;63555;49.920;17.868;2024-03-07T11:43:06;99300.00;;;2.39;100.00
69911;BME280;63555;49.920;17.868;2024-03-07T11:48:06;99290.38;;;2.41;100.00
69911;BME280;63555;49.920;17.868;2024-03-07T11:53:09;99292.94;;;2.42;100.00
69911;BME280;63555;49.920;17.868;2024-03-07T12:03:16;99283.81;;;2.55;100.00
69911;BME280;63555;49.920;17.868;2024-03-07T12:08:18;99281.81;;;2.64;100.00
69911;BME280;63555;49.920;17.868;2024-03-07T12:13:23;99271.06;;;2.73;100.00
69911;BME280;63555;49.920;17.868;2024-03-07T12:18:25;99272.50;;;2.81;100.00
69911;BME280;63555;49.920;17.868;2024-03-07T12:23:26;99281.09;;;2.83;100.00
69911;BME280;63555;49.920;17.868;2024-03-07T12:28:27;99273.25;;;2.85;100.00
69911;BME280;63555;49.920;17.868;2024-03-07T12:33:29;99262.81;;;2.85;100.00
69911;BME280;63555;49.920;17.868;2024-03-07T12:38:31;99264.00;;;3.00;100.00
69911;BME280;63555;49.920;17.868;2024-03-07T12:43:35;99258.97;;;3.18;100.00
69911;BME280;63555;49.920;17.868;2024-03-07T12:48:36;99256.19;;;3.23;100.00
69911;BME280;63555;49.920;17.868;2024-03-07T12:53:38;99255.50;;;3.18;100.00
69911;BME280;63555;49.920;17.868;2024-03-07T12:58:39;99261.81;;;3.12;99.72
69911;BME280;63555;49.920;17.868;2024-03-07T13:03:39;99261.97;;;3.08;99.25
69911;BME280;63555;49.920;17.868;2024-03-07T13:08:39;99263.00;;;3.04;98.74
69911;BME280;63555;49.920;17.868;2024-03-07T13:13:40;99257.00;;;3.02;99.25
69911;BME280;63555;49.920;17.868;2024-03-07T13:18:41;99255.34;;;2.99;98.70
69911;BME280;63555;49.920;17.868;2024-03-07T13:23:42;99251.22;;;2.94;97.93
69911;BME280;63555;49.920;17.868;2024-03-07T13:28:43;99260.91;;;2.90;98.07
69911;BME280;63555;49.920;17.868;2024-03-07T13:33:45;99257.59;;;2.85;97.72
69911;BME280;63555;49.920;17.868;2024-03-07T13:38:45;99266.34;;;2.84;97.79
69911;BME280;63555;49.920;17.868;2024-03-07T13:43:46;99263.84;;;2.81;97.51
69911;BME280;63555;49.920;17.868;2024-03-07T13:48:47;99262.94;;;2.82;97.26
69911;BME280;63555;49.920;17.868;2024-03-07T13:53:48;99273.28;;;2.83;97.27
69911;BME280;63555;49.920;17.868;2024-03-07T14:09:56;99267.28;;;2.81;97.08
69911;BME280;63555;49.920;17.868;2024-03-07T14:31:23;99260.50;;;2.77;95.91
69911;BME280;63555;49.920;17.868;2024-03-07T14:36:38;99258.69;;;2.79;95.98
69911;BME280;63555;49.920;17.868;2024-03-07T14:41:52;99256.88;;;2.81;95.50
69911;BME280;63555;49.920;17.868;2024-03-07T14:47:02;99266.44;;;2.81;95.65
69911;BME280;63555;49.920;17.868;2024-03-07T14:52:07;99257.84;;;2.79;95.16
69911;BME280;63555;49.920;17.868;2024-03-07T14:57:11;99250.06;;;2.77;95.39
69911;BME280;63555;49.920;17.868;2024-03-07T15:02:12;99245.72;;;2.78;95.21
69911;BME280;63555;49.920;17.868;2024-03-07T15:07:14;99245.59;;;2.81;95.46
69911;BME280;63555;49.920;17.868;2024-03-07T15:12:14;99238.63;;;2.81;95.05
69911;BME280;63555;49.920;17.868;2024-03-07T15:17:15;99246.50;;;2.80;95.24
69911;BME280;63555;49.920;17.868;2024-03-07T15:22:34;99245.59;;;2.81;95.19
69911;BME280;63555;49.920;17.868;2024-03-07T15:27:35;99243.84;;;2.81;94.93
69911;BME280;63555;49.920;17.868;2024-03-07T15:32:43;99245.50;;;2.84;95.48
69911;BME280;63555;49.920;17.868;2024-03-07T15:37:45;99246.34;;;2.84;95.24
69911;BME280;63555;49.920;17.868;2024-03-07T15:42:48;99246.47;;;2.81;95.18
69911;BME280;63555;49.920;17.868;2024-03-07T15:47:55;99256.13;;;2.78;95.30
69911;BME280;63555;49.920;17.868;2024-03-07T15:52:58;99250.06;;;2.77;95.16
69911;BME280;63555;49.920;17.868;2024-03-07T15:58:01;99256.97;;;2.78;94.93
69911;BME280;63555;49.920;17.868;2024-03-07T16:03:06;99257.84;;;2.79;95.02
69911;BME280;63555;49.920;17.868;2024-03-07T16:08:11;99256.06;;;2.79;94.86
69911;BME280;63555;49.920;17.868;2024-03-07T16:13:12;99256.81;;;2.83;95.12
69911;BME280;63555;49.920;17.868;2024-03-07T16:18:15;99269.78;;;2.84;95.04
69911;BME280;63555;49.920;17.868;2024-03-07T16:23:15;99261.00;;;2.87;94.61
69911;BME280;63555;49.920;17.868;2024-03-07T16:28:16;99267.97;;;2.86;95.01
69911;BME280;63555;49.920;17.868;2024-03-07T16:33:21;99264.53;;;2.86;94.82
69911;BME280;63555;49.920;17.868;2024-03-07T16:38:24;99283.66;;;2.85;94.67
69911;BME280;63555;49.920;17.868;2024-03-07T16:43:24;99284.56;;;2.84;94.40
69911;BME280;63555;49.920;17.868;2024-03-07T16:48:25;99288.13;;;2.81;93.94
69911;BME280;63555;49.920;17.868;2024-03-07T16:53:25;99296.09;;;2.77;93.50
69911;BME280;63555;49.920;17.868;2024-03-07T16:58:26;99308.50;;;2.70;92.93
69911;BME280;63555;49.920;17.868;2024-03-07T17:03:26;99313.13;;;2.62;92.72
69911;BME280;63555;49.920;17.868;2024-03-07T17:08:26;99318.38;;;2.59;92.93
69911;BME280;63555;49.920;17.868;2024-03-07T17:13:27;99319.44;;;2.53;92.63
69911;BME280;63555;49.920;17.868;2024-03-07T17:18:28;99317.91;;;2.48;92.78
69911;BME280;63555;49.920;17.868;2024-03-07T17:23:29;99322.41;;;2.43;92.05
69911;BME280;63555;49.920;17.868;2024-03-07T17:28:29;99325.13;;;2.40;92.13
69911;BME280;63555;49.920;17.868;2024-03-07T17:33:30;99328.72;;;2.36;91.87
69911;BME280;63555;49.920;17.868;2024-03-07T17:38:30;99333.13;;;2.34;91.66
69911;BME280;63555;49.920;17.868;2024-03-07T17:43:33;99332.28;;;2.33;92.29
69911;BME280;63555;49.920;17.868;2024-03-07T17:48:33;99328.84;;;2.33;92.10
69911;BME280;63555;49.920;17.868;2024-03-07T17:53:36;99332.44;;;2.29;91.77
69911;BME280;63555;49.920;17.868;2024-03-07T17:58:39;99327.44;;;2.22;92.08
69911;BME280;63555;49.920;17.868;2024-03-07T18:03:40;99330.34;;;2.13;91.63
69911;BME280;63555;49.920;17.868;2024-03-07T18:08:42;99325.34;;;2.07;91.46
69911;BME280;63555;49.920;17.868;2024-03-07T18:13:43;99329.84;;;2.02;91.06
69911;BME280;63555;49.920;17.868;2024-03-07T18:18:44;99333.34;;;2.01;91.43
69911;BME280;63555;49.920;17.868;2024-03-07T18:23:49;99335.03;;;2.02;91.90
69911;BME280;63555;49.920;17.868;2024-03-07T18:28:49;99342.84;;;2.02;91.66
69911;BME280;63555;49.920;17.868;2024-03-07T18:33:50;99340.28;;;2.01;91.53
69911;BME280;63555;49.920;17.868;2024-03-07T18:38:50;99340.28;;;2.01;91.35
69911;BME280;63555;49.920;17.868;2024-03-07T18:43:51;99333.38;;;2.00;90.85
69911;BME280;63555;49.920;17.868;2024-03-07T18:48:51;99337.75;;;1.99;91.00
69911;BME280;63555;49.920;17.868;2024-03-07T18:53:53;99333.34;;;2.01;91.28
69911;BME280;63555;49.920;17.868;2024-03-07T18:58:54;99339.34;;;2.03;90.61
69911;BME280;63555;49.920;17.868;2024-03-07T19:03:54;99340.94;;;2.07;90.69
69911;BME280;63555;49.920;17.868;2024-03-07T19:08:54;99334.88;;;2.07;90.37
69911;BME280;63555;49.920;17.868;2024-03-07T19:13:55;99328.78;;;2.08;91.19
69911;BME280;63555;49.920;17.868;2024-03-07T19:18:55;99334.75;;;2.11;91.04
69911;BME280;63555;49.920;17.868;2024-03-07T19:23:56;99336.44;;;2.12;90.31
69911;BME280;63555;49.920;17.868;2024-03-07T19:28:56;99339.00;;;2.14;90.64
69911;BME280;63555;49.920;17.868;2024-03-07T19:33:57;99334.59;;;2.16;90.50
69911;BME280;63555;49.920;17.868;2024-03-07T19:38:58;99329.50;;;2.13;90.54
69911;BME280;63555;49.920;17.868;2024-03-07T19:44:09;99324.28;;;2.13;90.34
69911;BME280;63555;49.920;17.868;2024-03-07T19:49:09;99321.69;;;2.13;89.92
69911;BME280;63555;49.920;17.868;2024-03-07T19:54:09;99326.94;;;2.11;89.90
69911;BME280;63555;49.920;17.868;2024-03-07T19:59:10;99324.34;;;2.11;89.95
69911;BME280;63555;49.920;17.868;2024-03-07T20:04:12;99329.44;;;2.14;90.17
69911;BME280;63555;49.920;17.868;2024-03-07T20:09:16;99327.69;;;2.15;89.74
69911;BME280;63555;49.920;17.868;2024-03-07T20:14:17;99322.50;;;2.15;90.02
69911;BME280;63555;49.920;17.868;2024-03-07T20:19:18;99323.34;;;2.15;90.05
69911;BME280;63555;49.920;17.868;2024-03-07T20:24:18;99307.72;;;2.15;89.67
69911;BME280;63555;49.920;17.868;2024-03-07T20:29:18;99313.78;;;2.16;89.01
69911;BME280;63555;49.920;17.868;2024-03-07T20:34:19;99305.94;;;2.17;88.41
69911;BME280;63555;49.920;17.868;2024-03-07T20:39:20;99311.97;;;2.18;88.45
69911;BME280;63555;49.920;17.868;2024-03-07T20:44:23;99310.22;;;2.18;88.02
69911;BME280;63555;49.920;17.868;2024-03-07T20:49:25;99314.59;;;2.18;88.05
69911;BME280;63555;49.920;17.868;2024-03-07T20:54:25;99306.78;;;2.18;87.34
69911;BME280;63555;49.920;17.868;2024-03-07T20:59:25;99306.78;;;2.18;87.48
69911;BME280;63555;49.920;17.868;2024-03-07T21:04:26;99310.28;;;2.17;87.30
69911;BME280;63555;49.920;17.868;2024-03-07T21:09:26;99307.63;;;2.18;86.74
69911;BME280;63555;49.920;17.868;2024-03-07T21:14:29;99306.69;;;2.21;86.51
69911;BME280;63555;49.920;17.868;2024-03-07T21:19:31;99309.28;;;2.21;86.37
69911;BME280;63555;49.920;17.868;2024-03-07T21:24:32;99298.97;;;2.18;86.15
69911;BME280;63555;49.920;17.868;2024-03-07T21:29:32;99300.72;;;2.17;86.06
69911;BME280;63555;49.920;17.868;2024-03-07T21:34:33;99299.06;;;2.15;85.92
69911;BME280;63555;49.920;17.868;2024-03-07T21:39:34;99295.66;;;2.13;86.10
69911;BME280;63555;49.920;17.868;2024-03-07T21:44:35;99305.22;;;2.12;86.29
69911;BME280;63555;49.920;17.868;2024-03-07T21:49:37;99294.81;;;2.12;86.04
69911;BME280;63555;49.920;17.868;2024-03-07T21:54:41;99293.22;;;2.08;85.72
69911;BME280;63555;49.920;17.868;2024-03-07T21:59:42;99302.78;;;2.08;86.30
69911;BME280;63555;49.920;17.868;2024-03-07T22:04:42;99299.31;;;2.07;86.08
69911;BME280;63555;49.920;17.868;2024-03-07T22:09:42;99293.31;;;2.05;85.70
69911;BME280;63555;49.920;17.868;2024-03-07T22:14:43;99297.72;;;2.03;85.64
69911;BME280;63555;49.920;17.868;2024-03-07T22:19:43;99290.81;;;2.02;85.47
69911;BME280;63555;49.920;17.868;2024-03-07T22:24:44;99281.28;;;2.03;86.23
69911;BME280;63555;49.920;17.868;2024-03-07T22:29:44;99286.47;;;2.03;86.24
69911;BME280;63555;49.920;17.868;2024-03-07T22:34:45;99281.28;;;2.03;86.31
69911;BME280;63555;49.920;17.868;2024-03-07T22:39:45;99280.38;;;2.04;85.50
69911;BME280;63555;49.920;17.868;2024-03-07T22:44:46;99270.88;;;2.03;86.35
69911;BME280;63555;49.920;17.868;2024-03-07T22:49:46;99271.81;;;2.00;85.88
69911;BME280;63555;49.920;17.868;2024-03-07T22:54:50;99267.72;;;1.93;85.88
69911;BME280;63555;49.920;17.868;2024-03-07T22:59:50;99276.66;;;1.84;85.55
69911;BME280;63555;49.920;17.868;2024-03-07T23:04:50;99266.78;;;1.68;85.34
69911;BME280;63555;49.920;17.868;2024-03-07T23:09:52;99279.31;;;1.55;85.83
69911;BME280;63555;49.920;17.868;2024-03-07T23:14:53;99277.03;;;1.44;86.18
69911;BME280;63555;49.920;17.868;2024-03-07T23:19:55;99277.41;;;1.32;86.45
69911;BME280;63555;49.920;17.868;2024-03-07T23:24:56;99282.06;;;1.21;86.44
69911;BME280;63555;49.920;17.868;2024-03-07T23:29:56;99279.78;;;1.10;85.90
69911;BME280;63555;49.920;17.868;2024-03-07T23:34:56;99283.59;;;0.99;86.32
69911;BME280;63555;49.920;17.868;2024-03-07T23:39:58;99283.75;;;0.92;86.75
69911;BME280;63555;49.920;17.868;2024-03-07T23:44:58;99288.16;;;0.90;86.36
69911;BME280;63555;49.920;17.868;2024-03-07T23:49:59;99283.06;;;0.86;86.37
69911;BME280;63555;49.920;17.868;2024-03-07T23:55:00;99282.47;;;0.76;86.04
